sensor_id;sensor_type;location;lat;lon;timestamp;pressure;altitude;pressure_sealevel;temperature;humidity
25944;BME280;13742;49.306;8.636;2023-11-19T00:00:04;100454.51;;;8.98;100.00
25944;BME280;13742;49.306;8.636;2023-11-19T00:01:02;100448.27;;;8.97;100.00
25944;BME280;13742;49.306;8.636;2023-11-19T00:02:02;100450.08;;;8.98;100.00
25944;BME280;13742;49.306;8.636;2023-11-19T00:03:02;100446.08;;;8.99;100.00
25944;BME280;13742;49.306;8.636;2023-11-19T00:04:04;100450.64;;;8.99;100.00
25944;BME280;13742;49.306;8.636;2023-11-19T00:05:02;100447.70;;;9.00;100.00
25944;BME280;13742;49.306;8.636;2023-11-19T00:06:03;100447.39;;;8.99;100.00
25944;BME280;13742;49.306;8.636;2023-11-19T00:07:04;100446.45;;;9.00;100.00
25944;BME280;13742;49.306;8.636;2023-11-19T00:08:02;100438.67;;;8.99;100.00
25944;BME280;13742;49.306;8.636;2023-11-19T00:09:03;100442.66;;;9.00;100.00
25944;BME280;13742;49.306;8.636;2023-11-19T00:10:10;100442.00;;;9.00;100.00
25944;BME280;13742;49.306;8.636;2023-11-19T00:11:03;100446.61;;;9.02;100.00
25944;BME280;13742;49.306;8.636;2023-11-19T00:12:02;100446.36;;;9.01;100.00
25944;BME280;13742;49.306;8.636;2023-11-19T00:13:02;100447.16;;;9.02;100.00
25944;BME280;13742;49.306;8.636;2023-11-19T00:14:02;100448.50;;;9.03;100.00
25944;BME280;13742;49.306;8.636;2023-11-19T00:15:02;100443.89;;;9.03;100.00
25944;BME280;13742;49.306;8.636;2023-11-19T00:16:04;100443.23;;;9.05;100.00
25944;BME280;13742;49.306;8.636;2023-11-19T00:17:02;100443.05;;;9.04;100.00
25944;BME280;13742;49.306;8.636;2023-11-19T00:18:04;100436.16;;;9.05;100.00
25944;BME280;13742;49.306;8.636;2023-11-19T00:19:04;100433.96;;;9.05;100.00
25944;BME280;13742;49.306;8.636;2023-11-19T00:20:06;100431.96;;;9.06;100.00
25944;BME280;13742;49.306;8.636;2023-11-19T00:21:02;100428.13;;;9.06;100.00
25944;BME280;13742;49.306;8.636;2023-11-19T00:22:02;100419.45;;;9.06;100.00
25944;BME280;13742;49.306;8.636;2023-11-19T00:23:02;100419.53;;;9.07;100.00
25944;BME280;13742;49.306;8.636;2023-11-19T00:24:02;100417.17;;;9.09;100.00
25944;BME280;13742;49.306;8.636;2023-11-19T00:25:02;100418.00;;;9.09;100.00
25944;BME280;13742;49.306;8.636;2023-11-19T00:26:02;100414.46;;;9.10;100.00
25944;BME280;13742;49.306;8.636;2023-11-19T00:27:02;100415.06;;;9.09;100.00
25944;BME280;13742;49.306;8.636;2023-11-19T00:28:02;100414.44;;;9.11;100.00
25944;BME280;13742;49.306;8.636;2023-11-19T00:29:02;100423.77;;;9.11;100.00
25944;BME280;13742;49.306;8.636;2023-11-19T00:30:05;100418.88;;;9.11;100.00
25944;BME280;13742;49.306;8.636;2023-11-19T00:31:03;100419.10;;;9.12;100.00
25944;BME280;13742;49.306;8.636;2023-11-19T00:32:02;100420.18;;;9.12;100.00
25944;BME280;13742;49.306;8.636;2023-11-19T00:33:02;100416.77;;;9.12;100.00
25944;BME280;13742;49.306;8.636;2023-11-19T00:34:02;100412.93;;;9.12;100.00
25944;BME280;13742;49.306;8.636;2023-11-19T00:35:03;100411.80;;;9.13;100.00
25944;BME280;13742;49.306;8.636;2023-11-19T00:36:03;100414.85;;;9.14;100.00
25944;BME280;13742;49.306;8.636;2023-11-19T00:37:03;100419.05;;;9.15;100.00
25944;BME280;13742;49.306;8.636;2023-11-19T00:38:03;100414.31;;;9.16;100.00
25944;BME280;13742;49.306;8.636;2023-11-19T00:39:02;100413.02;;;9.15;100.00
25944;BME280;13742;49.306;8.636;2023-11-19T00:40:05;100409.50;;;9.15;100.00
25944;BME280;13742;49.306;8.636;2023-11-19T00:41:02;100405.74;;;9.16;100.00
25944;BME280;13742;49.306;8.636;2023-11-19T00:42:02;100399.66;;;9.16;100.00
25944;BME280;13742;49.306;8.636;2023-11-19T00:43:02;100395.91;;;9.16;100.00
25944;BME280;13742;49.306;8.636;2023-11-19T00:44:02;100394.55;;;9.16;100.00
25944;BME280;13742;49.306;8.636;2023-11-19T00:45:02;100397.61;;;9.15;100.00
25944;BME280;13742;49.306;8.636;2023-11-19T00:46:06;100397.52;;;9.20;100.00
25944;BME280;13742;49.306;8.636;2023-11-19T00:47:02;100395.59;;;9.18;100.00
25944;BME280;13742;49.306;8.636;2023-11-19T00:48:02;100387.95;;;9.17;100.00
25944;BME280;13742;49.306;8.636;2023-11-19T00:49:02;100384.77;;;9.17;100.00
25944;BME280;13742;49.306;8.636;2023-11-19T00:50:02;100384.33;;;9.17;100.00
25944;BME280;13742;49.306;8.636;2023-11-19T00:51:02;100390.67;;;9.17;100.00
25944;BME280;13742;49.306;8.636;2023-11-19T00:52:02;100393.55;;;9.19;100.00
25944;BME280;13742;49.306;8.636;2023-11-19T00:53:03;100393.75;;;9.18;100.00
25944;BME280;13742;49.306;8.636;2023-11-19T00:54:02;100400.39;;;9.20;100.00
25944;BME280;13742;49.306;8.636;2023-11-19T00:55:02;100401.47;;;9.20;100.00
25944;BME280;13742;49.306;8.636;2023-11-19T00:56:02;100402.53;;;9.20;100.00
25944;BME280;13742;49.306;8.636;2023-11-19T00:57:02;100400.92;;;9.21;100.00
25944;BME280;13742;49.306;8.636;2023-11-19T00:58:03;100400.81;;;9.21;100.00
25944;BME280;13742;49.306;8.636;2023-11-19T00:59:02;100401.27;;;9.21;100.00
25944;BME280;13742;49.306;8.636;2023-11-19T01:00:07;100403.61;;;9.22;100.00
25944;BME280;13742;49.306;8.636;2023-11-19T01:01:02;100405.02;;;9.22;100.00
25944;BME280;13742;49.306;8.636;2023-11-19T01:02:04;100403.26;;;9.23;100.00
25944;BME280;13742;49.306;8.636;2023-11-19T01:03:02;100398.92;;;9.22;100.00
25944;BME280;13742;49.306;8.636;2023-11-19T01:04:02;100400.67;;;9.22;100.00
25944;BME280;13742;49.306;8.636;2023-11-19T01:05:02;100407.98;;;9.24;100.00
25944;BME280;13742;49.306;8.636;2023-11-19T01:06:02;100405.76;;;9.24;100.00
25944;BME280;13742;49.306;8.636;2023-11-19T01:07:04;100403.67;;;9.27;100.00
25944;BME280;13742;49.306;8.636;2023-11-19T01:08:04;100406.66;;;9.26;100.00
25944;BME280;13742;49.306;8.636;2023-11-19T01:09:02;100408.02;;;9.25;100.00
25944;BME280;13742;49.306;8.636;2023-11-19T01:10:03;100414.55;;;9.26;100.00
25944;BME280;13742;49.306;8.636;2023-11-19T01:11:02;100409.30;;;9.28;100.00
25944;BME280;13742;49.306;8.636;2023-11-19T01:12:02;100411.09;;;9.28;100.00
25944;BME280;13742;49.306;8.636;2023-11-19T01:13:03;100402.61;;;9.29;100.00
25944;BME280;13742;49.306;8.636;2023-11-19T01:14:02;100403.02;;;9.28;100.00
25944;BME280;13742;49.306;8.636;2023-11-19T01:15:02;100403.16;;;9.28;100.00
25944;BME280;13742;49.306;8.636;2023-11-19T01:16:02;100392.53;;;9.29;100.00
25944;BME280;13742;49.306;8.636;2023-11-19T01:17:02;100388.03;;;9.30;100.00
25944;BME280;13742;49.306;8.636;2023-11-19T01:18:04;100387.31;;;9.29;100.00
25944;BME280;13742;49.306;8.636;2023-11-19T01:19:04;100388.52;;;9.29;100.00
25944;BME280;13742;49.306;8.636;2023-11-19T01:20:02;100391.90;;;9.30;100.00
25944;BME280;13742;49.306;8.636;2023-11-19T01:21:02;100393.36;;;9.33;100.00
25944;BME280;13742;49.306;8.636;2023-11-19T01:22:02;100397.83;;;9.32;100.00
25944;BME280;13742;49.306;8.636;2023-11-19T01:23:02;100397.25;;;9.31;100.00
25944;BME280;13742;49.306;8.636;2023-11-19T01:24:04;100395.50;;;9.31;100.00
25944;BME280;13742;49.306;8.636;2023-11-19T01:25:03;100396.02;;;9.31;100.00
25944;BME280;13742;49.306;8.636;2023-11-19T01:26:02;100398.55;;;9.32;100.00
25944;BME280;13742;49.306;8.636;2023-11-19T01:27:02;100400.36;;;9.34;100.00
25944;BME280;13742;49.306;8.636;2023-11-19T01:28:02;100406.19;;;9.34;100.00
25944;BME280;13742;49.306;8.636;2023-11-19T01:29:01;100403.60;;;9.34;100.00
25944;BME280;13742;49.306;8.636;2023-11-19T01:30:06;100396.08;;;9.34;100.00
25944;BME280;13742;49.306;8.636;2023-11-19T01:31:02;100398.72;;;9.34;100.00
25944;BME280;13742;49.306;8.636;2023-11-19T01:32:02;100398.44;;;9.34;100.00
25944;BME280;13742;49.306;8.636;2023-11-19T01:33:02;100402.12;;;9.34;100.00
25944;BME280;13742;49.306;8.636;2023-11-19T01:34:02;100404.32;;;9.34;100.00
25944;BME280;13742;49.306;8.636;2023-11-19T01:35:02;100399.70;;;9.34;100.00
25944;BME280;13742;49.306;8.636;2023-11-19T01:36:02;100398.55;;;9.34;100.00
25944;BME280;13742;49.306;8.636;2023-11-19T01:37:02;100398.49;;;9.36;100.00
25944;BME280;13742;49.306;8.636;2023-11-19T01:38:01;100403.22;;;9.36;100.00
25944;BME280;13742;49.306;8.636;2023-11-19T01:39:03;100404.08;;;9.37;100.00
25944;BME280;13742;49.306;8.636;2023-11-19T01:40:04;100402.84;;;9.38;100.00
25944;BME280;13742;49.306;8.636;2023-11-19T01:41:03;100401.63;;;9.38;100.00
25944;BME280;13742;49.306;8.636;2023-11-19T01:42:01;100403.63;;;9.37;100.00
25944;BME280;13742;49.306;8.636;2023-11-19T01:43:02;100396.80;;;9.38;100.00
25944;BME280;13742;49.306;8.636;2023-11-19T01:44:02;100394.49;;;9.38;100.00
25944;BME280;13742;49.306;8.636;2023-11-19T01:45:02;100397.21;;;9.39;100.00
25944;BME280;13742;49.306;8.636;2023-11-19T01:46:04;100401.11;;;9.41;100.00
25944;BME280;13742;49.306;8.636;2023-11-19T01:47:01;100403.03;;;9.41;100.00
25944;BME280;13742;49.306;8.636;2023-11-19T01:48:02;100405.89;;;9.41;100.00
25944;BME280;13742;49.306;8.636;2023-11-19T01:49:02;100407.73;;;9.40;100.00
25944;BME280;13742;49.306;8.636;2023-11-19T01:50:02;100406.58;;;9.40;100.00
25944;BME280;13742;49.306;8.636;2023-11-19T01:51:02;100401.98;;;9.39;100.00
25944;BME280;13742;49.306;8.636;2023-11-19T01:52:01;100402.51;;;9.40;100.00
25944;BME280;13742;49.306;8.636;2023-11-19T01:53:02;100400.39;;;9.41;100.00
25944;BME280;13742;49.306;8.636;2023-11-19T01:54:02;100396.39;;;9.43;100.00
25944;BME280;13742;49.306;8.636;2023-11-19T01:55:02;100395.20;;;9.42;100.00
25944;BME280;13742;49.306;8.636;2023-11-19T01:56:02;100390.78;;;9.43;100.00
25944;BME280;13742;49.306;8.636;2023-11-19T01:57:02;100392.34;;;9.43;100.00
25944;BME280;13742;49.306;8.636;2023-11-19T01:58:02;100394.82;;;9.43;100.00
25944;BME280;13742;49.306;8.636;2023-11-19T01:59:02;100393.89;;;9.44;100.00
25944;BME280;13742;49.306;8.636;2023-11-19T02:00:02;100395.38;;;9.44;100.00
25944;BME280;13742;49.306;8.636;2023-11-19T02:01:04;100393.39;;;9.44;100.00
25944;BME280;13742;49.306;8.636;2023-11-19T02:02:02;100389.96;;;9.44;100.00
25944;BME280;13742;49.306;8.636;2023-11-19T02:03:03;100389.27;;;9.44;100.00
25944;BME280;13742;49.306;8.636;2023-11-19T02:04:02;100387.68;;;9.43;100.00
25944;BME280;13742;49.306;8.636;2023-11-19T02:05:02;100385.57;;;9.45;100.00
25944;BME280;13742;49.306;8.636;2023-11-19T02:06:02;100384.83;;;9.46;100.00
25944;BME280;13742;49.306;8.636;2023-11-19T02:07:01;100389.80;;;9.47;100.00
25944;BME280;13742;49.306;8.636;2023-11-19T02:08:02;100384.61;;;9.45;100.00
25944;BME280;13742;49.306;8.636;2023-11-19T02:09:07;100381.77;;;9.48;100.00
25944;BME280;13742;49.306;8.636;2023-11-19T02:10:02;100386.03;;;9.47;100.00
25944;BME280;13742;49.306;8.636;2023-11-19T02:11:01;100387.48;;;9.46;100.00
25944;BME280;13742;49.306;8.636;2023-11-19T02:12:02;100382.95;;;9.47;100.00
25944;BME280;13742;49.306;8.636;2023-11-19T02:13:02;100373.98;;;9.47;100.00
25944;BME280;13742;49.306;8.636;2023-11-19T02:14:04;100370.70;;;9.47;100.00
25944;BME280;13742;49.306;8.636;2023-11-19T02:15:02;100366.70;;;9.48;100.00
25944;BME280;13742;49.306;8.636;2023-11-19T02:16:02;100360.19;;;9.47;100.00
25944;BME280;13742;49.306;8.636;2023-11-19T02:17:02;100362.69;;;9.49;100.00
25944;BME280;13742;49.306;8.636;2023-11-19T02:19:02;100364.17;;;9.49;100.00
25944;BME280;13742;49.306;8.636;2023-11-19T02:20:06;100365.47;;;9.51;100.00
25944;BME280;13742;49.306;8.636;2023-11-19T02:21:01;100367.61;;;9.51;100.00
25944;BME280;13742;49.306;8.636;2023-11-19T02:22:01;100371.04;;;9.51;100.00
25944;BME280;13742;49.306;8.636;2023-11-19T02:23:01;100372.72;;;9.51;100.00
25944;BME280;13742;49.306;8.636;2023-11-19T02:24:05;100376.86;;;9.53;100.00
25944;BME280;13742;49.306;8.636;2023-11-19T02:25:04;100377.74;;;9.54;100.00
25944;BME280;13742;49.306;8.636;2023-11-19T02:27:02;100375.52;;;9.54;100.00
25944;BME280;13742;49.306;8.636;2023-11-19T02:28:02;100373.38;;;9.56;100.00
25944;BME280;13742;49.306;8.636;2023-11-19T02:29:02;100372.41;;;9.57;100.00
25944;BME280;13742;49.306;8.636;2023-11-19T02:30:03;100373.27;;;9.56;100.00
25944;BME280;13742;49.306;8.636;2023-11-19T02:31:01;100375.11;;;9.56;100.00
25944;BME280;13742;49.306;8.636;2023-11-19T02:32:02;100368.70;;;9.58;100.00
25944;BME280;13742;49.306;8.636;2023-11-19T02:33:05;100365.44;;;9.57;100.00
25944;BME280;13742;49.306;8.636;2023-11-19T02:34:02;100357.24;;;9.57;100.00
25944;BME280;13742;49.306;8.636;2023-11-19T02:35:01;100349.39;;;9.57;100.00
25944;BME280;13742;49.306;8.636;2023-11-19T02:36:03;100338.89;;;9.59;100.00
25944;BME280;13742;49.306;8.636;2023-11-19T02:37:01;100332.44;;;9.58;100.00
25944;BME280;13742;49.306;8.636;2023-11-19T02:38:03;100328.67;;;9.59;100.00
25944;BME280;13742;49.306;8.636;2023-11-19T02:39:02;100324.47;;;9.58;100.00
25944;BME280;13742;49.306;8.636;2023-11-19T02:40:04;100322.11;;;9.58;100.00
25944;BME280;13742;49.306;8.636;2023-11-19T02:41:05;100321.92;;;9.57;100.00
25944;BME280;13742;49.306;8.636;2023-11-19T02:42:01;100326.83;;;9.58;100.00
25944;BME280;13742;49.306;8.636;2023-11-19T02:43:02;100319.11;;;9.61;100.00
25944;BME280;13742;49.306;8.636;2023-11-19T02:44:01;100316.77;;;9.62;100.00
25944;BME280;13742;49.306;8.636;2023-11-19T02:45:02;100311.41;;;9.61;100.00
25944;BME280;13742;49.306;8.636;2023-11-19T02:46:02;100312.48;;;9.65;100.00
25944;BME280;13742;49.306;8.636;2023-11-19T02:47:05;100314.38;;;9.65;100.00
25944;BME280;13742;49.306;8.636;2023-11-19T02:48:01;100318.69;;;9.66;100.00
25944;BME280;13742;49.306;8.636;2023-11-19T02:49:01;100316.91;;;9.69;100.00
25944;BME280;13742;49.306;8.636;2023-11-19T02:50:02;100317.91;;;9.69;100.00
25944;BME280;13742;49.306;8.636;2023-11-19T02:51:03;100318.05;;;9.72;100.00
25944;BME280;13742;49.306;8.636;2023-11-19T02:52:01;100321.68;;;9.71;100.00
25944;BME280;13742;49.306;8.636;2023-11-19T02:53:02;100328.02;;;9.72;100.00
25944;BME280;13742;49.306;8.636;2023-11-19T02:54:03;100328.30;;;9.73;100.00
25944;BME280;13742;49.306;8.636;2023-11-19T02:55:01;100335.08;;;9.75;100.00
25944;BME280;13742;49.306;8.636;2023-11-19T02:56:09;100332.80;;;9.76;100.00
25944;BME280;13742;49.306;8.636;2023-11-19T02:57:03;100334.53;;;9.77;100.00
25944;BME280;13742;49.306;8.636;2023-11-19T02:58:05;100334.85;;;9.78;100.00
25944;BME280;13742;49.306;8.636;2023-11-19T02:59:13;100335.05;;;9.77;100.00
25944;BME280;13742;49.306;8.636;2023-11-19T03:00:15;100338.98;;;9.78;100.00
25944;BME280;13742;49.306;8.636;2023-11-19T03:01:12;100336.30;;;9.81;100.00
25944;BME280;13742;49.306;8.636;2023-11-19T03:02:01;100337.88;;;9.81;100.00
25944;BME280;13742;49.306;8.636;2023-11-19T03:03:06;100339.55;;;9.85;100.00
25944;BME280;13742;49.306;8.636;2023-11-19T03:04:02;100337.67;;;9.85;100.00
25944;BME280;13742;49.306;8.636;2023-11-19T03:05:03;100335.83;;;9.84;100.00
25944;BME280;13742;49.306;8.636;2023-11-19T03:06:05;100331.60;;;9.84;100.00
25944;BME280;13742;49.306;8.636;2023-11-19T03:07:02;100332.26;;;9.86;100.00
25944;BME280;13742;49.306;8.636;2023-11-19T03:08:03;100328.72;;;9.86;100.00
25944;BME280;13742;49.306;8.636;2023-11-19T03:09:06;100331.16;;;9.86;100.00
25944;BME280;13742;49.306;8.636;2023-11-19T03:10:01;100326.26;;;9.90;100.00
25944;BME280;13742;49.306;8.636;2023-11-19T03:11:02;100317.80;;;9.88;100.00
25944;BME280;13742;49.306;8.636;2023-11-19T03:12:02;100317.63;;;9.90;100.00
25944;BME280;13742;49.306;8.636;2023-11-19T03:13:03;100316.11;;;9.91;100.00
25944;BME280;13742;49.306;8.636;2023-11-19T03:14:03;100311.77;;;9.91;100.00
25944;BME280;13742;49.306;8.636;2023-11-19T03:15:02;100319.27;;;9.90;100.00
25944;BME280;13742;49.306;8.636;2023-11-19T03:16:01;100315.40;;;9.91;100.00
25944;BME280;13742;49.306;8.636;2023-11-19T03:17:01;100312.67;;;9.94;100.00
25944;BME280;13742;49.306;8.636;2023-11-19T03:18:01;100308.05;;;9.94;100.00
25944;BME280;13742;49.306;8.636;2023-11-19T03:19:01;100303.84;;;9.95;100.00
25944;BME280;13742;49.306;8.636;2023-11-19T03:20:02;100302.06;;;9.94;100.00
25944;BME280;13742;49.306;8.636;2023-11-19T03:21:03;100301.26;;;9.95;100.00
25944;BME280;13742;49.306;8.636;2023-11-19T03:22:02;100296.64;;;9.95;100.00
25944;BME280;13742;49.306;8.636;2023-11-19T03:23:01;100297.10;;;9.96;100.00
25944;BME280;13742;49.306;8.636;2023-11-19T03:24:02;100300.31;;;9.99;100.00
25944;BME280;13742;49.306;8.636;2023-11-19T03:25:01;100306.03;;;9.98;100.00
25944;BME280;13742;49.306;8.636;2023-11-19T03:26:04;100302.05;;;10.01;100.00
25944;BME280;13742;49.306;8.636;2023-11-19T03:27:01;100300.36;;;10.01;100.00
25944;BME280;13742;49.306;8.636;2023-11-19T03:28:03;100296.55;;;10.01;100.00
25944;BME280;13742;49.306;8.636;2023-11-19T03:29:01;100294.56;;;10.03;100.00
25944;BME280;13742;49.306;8.636;2023-11-19T03:30:02;100296.89;;;10.03;100.00
25944;BME280;13742;49.306;8.636;2023-11-19T03:31:04;100296.59;;;10.04;100.00
25944;BME280;13742;49.306;8.636;2023-11-19T03:32:01;100289.77;;;10.04;100.00
25944;BME280;13742;49.306;8.636;2023-11-19T03:33:02;100294.58;;;10.05;100.00
25944;BME280;13742;49.306;8.636;2023-11-19T03:34:02;100293.39;;;10.06;100.00
25944;BME280;13742;49.306;8.636;2023-11-19T03:35:02;100289.73;;;10.07;100.00
25944;BME280;13742;49.306;8.636;2023-11-19T03:36:01;100284.55;;;10.09;100.00
25944;BME280;13742;49.306;8.636;2023-11-19T03:37:03;100280.84;;;10.09;100.00
25944;BME280;13742;49.306;8.636;2023-11-19T03:38:01;100283.97;;;10.10;100.00
25944;BME280;13742;49.306;8.636;2023-11-19T03:39:03;100281.59;;;10.09;100.00
25944;BME280;13742;49.306;8.636;2023-11-19T03:40:02;100285.13;;;10.11;100.00
25944;BME280;13742;49.306;8.636;2023-11-19T03:41:01;100280.86;;;10.11;100.00
25944;BME280;13742;49.306;8.636;2023-11-19T03:42:03;100285.67;;;10.12;100.00
25944;BME280;13742;49.306;8.636;2023-11-19T03:43:04;100286.83;;;10.12;100.00
25944;BME280;13742;49.306;8.636;2023-11-19T03:44:01;100286.66;;;10.14;100.00
25944;BME280;13742;49.306;8.636;2023-11-19T03:45:04;100284.98;;;10.13;100.00
25944;BME280;13742;49.306;8.636;2023-11-19T03:46:02;100286.67;;;10.15;100.00
25944;BME280;13742;49.306;8.636;2023-11-19T03:47:02;100281.14;;;10.18;100.00
25944;BME280;13742;49.306;8.636;2023-11-19T03:48:01;100281.92;;;10.16;100.00
25944;BME280;13742;49.306;8.636;2023-11-19T03:49:02;100280.97;;;10.18;100.00
25944;BME280;13742;49.306;8.636;2023-11-19T03:50:02;100277.65;;;10.17;100.00
25944;BME280;13742;49.306;8.636;2023-11-19T03:51:01;100274.84;;;10.19;100.00
25944;BME280;13742;49.306;8.636;2023-11-19T03:52:02;100274.88;;;10.18;100.00
25944;BME280;13742;49.306;8.636;2023-11-19T03:53:02;100283.25;;;10.19;100.00
25944;BME280;13742;49.306;8.636;2023-11-19T03:54:01;100278.68;;;10.21;100.00
25944;BME280;13742;49.306;8.636;2023-11-19T03:55:03;100274.52;;;10.22;100.00
25944;BME280;13742;49.306;8.636;2023-11-19T03:56:01;100275.92;;;10.23;100.00
25944;BME280;13742;49.306;8.636;2023-11-19T03:57:03;100273.96;;;10.23;100.00
25944;BME280;13742;49.306;8.636;2023-11-19T03:58:01;100277.16;;;10.24;100.00
25944;BME280;13742;49.306;8.636;2023-11-19T03:59:02;100276.80;;;10.23;100.00
25944;BME280;13742;49.306;8.636;2023-11-19T04:00:08;100276.60;;;10.23;100.00
25944;BME280;13742;49.306;8.636;2023-11-19T04:01:02;100272.48;;;10.24;100.00
25944;BME280;13742;49.306;8.636;2023-11-19T04:02:02;100274.67;;;10.26;100.00
25944;BME280;13742;49.306;8.636;2023-11-19T04:03:01;100273.20;;;10.28;100.00
25944;BME280;13742;49.306;8.636;2023-11-19T04:04:02;100268.50;;;10.27;100.00
25944;BME280;13742;49.306;8.636;2023-11-19T04:05:01;100274.47;;;10.27;100.00
25944;BME280;13742;49.306;8.636;2023-11-19T04:06:01;100277.00;;;10.27;100.00
25944;BME280;13742;49.306;8.636;2023-11-19T04:07:03;100273.64;;;10.29;100.00
25944;BME280;13742;49.306;8.636;2023-11-19T04:08:01;100269.94;;;10.30;100.00
25944;BME280;13742;49.306;8.636;2023-11-19T04:09:01;100265.02;;;10.31;100.00
25944;BME280;13742;49.306;8.636;2023-11-19T04:10:02;100264.08;;;10.36;100.00
25944;BME280;13742;49.306;8.636;2023-11-19T04:11:03;100260.32;;;10.36;100.00
25944;BME280;13742;49.306;8.636;2023-11-19T04:12:01;100258.20;;;10.36;100.00
25944;BME280;13742;49.306;8.636;2023-11-19T04:13:01;100259.19;;;10.36;100.00
25944;BME280;13742;49.306;8.636;2023-11-19T04:14:01;100262.70;;;10.36;100.00
25944;BME280;13742;49.306;8.636;2023-11-19T04:15:01;100261.03;;;10.35;100.00
25944;BME280;13742;49.306;8.636;2023-11-19T04:16:01;100254.88;;;10.36;100.00
25944;BME280;13742;49.306;8.636;2023-11-19T04:17:02;100256.74;;;10.35;100.00
25944;BME280;13742;49.306;8.636;2023-11-19T04:18:01;100261.19;;;10.42;100.00
25944;BME280;13742;49.306;8.636;2023-11-19T04:19:01;100261.56;;;10.44;100.00
25944;BME280;13742;49.306;8.636;2023-11-19T04:20:04;100261.25;;;10.45;100.00
25944;BME280;13742;49.306;8.636;2023-11-19T04:21:01;100261.47;;;10.47;100.00
25944;BME280;13742;49.306;8.636;2023-11-19T04:22:02;100260.73;;;10.46;100.00
25944;BME280;13742;49.306;8.636;2023-11-19T04:23:01;100262.63;;;10.45;100.00
25944;BME280;13742;49.306;8.636;2023-11-19T04:24:01;100260.05;;;10.45;100.00
25944;BME280;13742;49.306;8.636;2023-11-19T04:25:01;100263.27;;;10.49;100.00
25944;BME280;13742;49.306;8.636;2023-11-19T04:26:02;100265.56;;;10.48;100.00
25944;BME280;13742;49.306;8.636;2023-11-19T04:27:01;100261.93;;;10.53;100.00
25944;BME280;13742;49.306;8.636;2023-11-19T04:28:02;100261.77;;;10.51;100.00
25944;BME280;13742;49.306;8.636;2023-11-19T04:29:02;100266.06;;;10.53;100.00
25944;BME280;13742;49.306;8.636;2023-11-19T04:30:02;100268.72;;;10.54;100.00
25944;BME280;13742;49.306;8.636;2023-11-19T04:31:03;100271.89;;;10.52;100.00
25944;BME280;13742;49.306;8.636;2023-11-19T04:32:01;100274.67;;;10.52;100.00
25944;BME280;13742;49.306;8.636;2023-11-19T04:33:01;100280.03;;;10.53;100.00
25944;BME280;13742;49.306;8.636;2023-11-19T04:34:01;100278.97;;;10.52;100.00
25944;BME280;13742;49.306;8.636;2023-11-19T04:35:01;100282.25;;;10.51;100.00
25944;BME280;13742;49.306;8.636;2023-11-19T04:36:02;100284.95;;;10.54;100.00
25944;BME280;13742;49.306;8.636;2023-11-19T04:37:02;100285.59;;;10.53;100.00
25944;BME280;13742;49.306;8.636;2023-11-19T04:38:01;100286.28;;;10.61;100.00
25944;BME280;13742;49.306;8.636;2023-11-19T04:39:02;100282.07;;;10.58;100.00
25944;BME280;13742;49.306;8.636;2023-11-19T04:40:02;100279.56;;;10.58;100.00
25944;BME280;13742;49.306;8.636;2023-11-19T04:41:02;100278.11;;;10.58;100.00
25944;BME280;13742;49.306;8.636;2023-11-19T04:42:01;100279.63;;;10.56;100.00
25944;BME280;13742;49.306;8.636;2023-11-19T04:43:01;100278.11;;;10.58;100.00
25944;BME280;13742;49.306;8.636;2023-11-19T04:44:01;100280.13;;;10.57;100.00
25944;BME280;13742;49.306;8.636;2023-11-19T04:45:01;100283.08;;;10.58;100.00
25944;BME280;13742;49.306;8.636;2023-11-19T04:46:03;100278.05;;;10.58;100.00
25944;BME280;13742;49.306;8.636;2023-11-19T04:47:01;100278.44;;;10.58;100.00
25944;BME280;13742;49.306;8.636;2023-11-19T04:48:01;100278.14;;;10.57;100.00
25944;BME280;13742;49.306;8.636;2023-11-19T04:49:01;100277.50;;;10.58;100.00
25944;BME280;13742;49.306;8.636;2023-11-19T04:50:02;100277.18;;;10.60;100.00
25944;BME280;13742;49.306;8.636;2023-11-19T04:51:04;100285.67;;;10.58;100.00
25944;BME280;13742;49.306;8.636;2023-11-19T04:52:02;100277.27;;;10.60;100.00
25944;BME280;13742;49.306;8.636;2023-11-19T04:53:03;100277.55;;;10.59;100.00
25944;BME280;13742;49.306;8.636;2023-11-19T04:54:01;100275.77;;;10.61;100.00
25944;BME280;13742;49.306;8.636;2023-11-19T04:55:01;100276.84;;;10.62;100.00
25944;BME280;13742;49.306;8.636;2023-11-19T04:56:06;100270.59;;;10.63;100.00
25944;BME280;13742;49.306;8.636;2023-11-19T04:57:01;100271.55;;;10.64;100.00
25944;BME280;13742;49.306;8.636;2023-11-19T04:58:01;100264.51;;;10.67;100.00
25944;BME280;13742;49.306;8.636;2023-11-19T04:59:02;100255.20;;;10.65;100.00
25944;BME280;13742;49.306;8.636;2023-11-19T05:00:04;100252.21;;;10.67;100.00
25944;BME280;13742;49.306;8.636;2023-11-19T05:01:01;100244.34;;;10.66;100.00
25944;BME280;13742;49.306;8.636;2023-11-19T05:02:01;100258.27;;;10.66;100.00
25944;BME280;13742;49.306;8.636;2023-11-19T05:03:02;100270.51;;;10.67;100.00
25944;BME280;13742;49.306;8.636;2023-11-19T05:04:02;100266.78;;;10.68;100.00
25944;BME280;13742;49.306;8.636;2023-11-19T05:05:03;100270.89;;;10.72;100.00
25944;BME280;13742;49.306;8.636;2023-11-19T05:06:01;100269.49;;;10.71;100.00
25944;BME280;13742;49.306;8.636;2023-11-19T05:07:01;100273.77;;;10.73;100.00
25944;BME280;13742;49.306;8.636;2023-11-19T05:08:01;100266.59;;;10.72;100.00
25944;BME280;13742;49.306;8.636;2023-11-19T05:09:03;100262.31;;;10.70;100.00
25944;BME280;13742;49.306;8.636;2023-11-19T05:10:03;100266.88;;;10.70;100.00
25944;BME280;13742;49.306;8.636;2023-11-19T05:11:01;100270.30;;;10.70;100.00
25944;BME280;13742;49.306;8.636;2023-11-19T05:12:02;100269.09;;;10.70;100.00
25944;BME280;13742;49.306;8.636;2023-11-19T05:13:01;100272.26;;;10.69;100.00